sensor_id;sensor_type;location;lat;lon;timestamp;P1;durP1;ratioP1;P2;durP2;ratioP2
57409;SDS011;46044;44.738;20.394;2022-07-29T00:01:20;14.63;;;7.32;;
57409;SDS011;46044;44.738;20.394;2022-07-29T00:03:46;12.13;;;6.55;;
57409;SDS011;46044;44.738;20.394;2022-07-29T00:06:12;17.23;;;7.45;;
57409;SDS011;46044;44.738;20.394;2022-07-29T00:08:39;11.32;;;7.57;;
57409;SDS011;46044;44.738;20.394;2022-07-29T00:11:04;14.10;;;7.47;;
57409;SDS011;46044;44.738;20.394;2022-07-29T00:13:30;11.57;;;7.40;;
57409;SDS011;46044;44.738;20.394;2022-07-29T00:15:55;12.80;;;7.88;;
57409;SDS011;46044;44.738;20.394;2022-07-29T00:18:21;13.43;;;8.38;;
57409;SDS011;46044;44.738;20.394;2022-07-29T00:20:47;11.88;;;7.85;;
57409;SDS011;46044;44.738;20.394;2022-07-29T00:23:12;17.38;;;8.38;;
57409;SDS011;46044;44.738;20.394;2022-07-29T00:25:38;16.77;;;8.45;;
57409;SDS011;46044;44.738;20.394;2022-07-29T00:28:04;13.07;;;8.30;;
57409;SDS011;46044;44.738;20.394;2022-07-29T00:30:30;15.63;;;8.32;;
57409;SDS011;46044;44.738;20.394;2022-07-29T00:32:55;11.35;;;7.95;;
57409;SDS011;46044;44.738;20.394;2022-07-29T00:35:21;18.23;;;8.32;;
57409;SDS011;46044;44.738;20.394;2022-07-29T00:38:05;15.13;;;8.15;;
57409;SDS011;46044;44.738;20.394;2022-07-29T00:40:31;14.13;;;8.65;;
57409;SDS011;46044;44.738;20.394;2022-07-29T00:42:56;14.52;;;8.00;;
57409;SDS011;46044;44.738;20.394;2022-07-29T00:45:22;18.10;;;8.30;;
57409;SDS011;46044;44.738;20.394;2022-07-29T00:47:48;17.23;;;8.40;;
57409;SDS011;46044;44.738;20.394;2022-07-29T00:50:14;10.75;;;7.88;;
57409;SDS011;46044;44.738;20.394;2022-07-29T00:52:40;15.35;;;7.82;;
57409;SDS011;46044;44.738;20.394;2022-07-29T00:55:09;14.45;;;8.30;;
57409;SDS011;46044;44.738;20.394;2022-07-29T00:57:37;13.35;;;8.00;;
57409;SDS011;46044;44.738;20.394;2022-07-29T01:00:04;10.35;;;7.38;;
57409;SDS011;46044;44.738;20.394;2022-07-29T01:02:31;16.50;;;8.90;;
57409;SDS011;46044;44.738;20.394;2022-07-29T01:04:56;15.05;;;8.48;;
57409;SDS011;46044;44.738;20.394;2022-07-29T01:07:23;12.68;;;8.00;;
57409;SDS011;46044;44.738;20.394;2022-07-29T01:09:50;19.27;;;8.85;;
57409;SDS011;46044;44.738;20.394;2022-07-29T01:12:17;16.33;;;8.00;;
57409;SDS011;46044;44.738;20.394;2022-07-29T01:14:48;14.55;;;8.93;;
57409;SDS011;46044;44.738;20.394;2022-07-29T01:17:19;18.35;;;8.65;;
57409;SDS011;46044;44.738;20.394;2022-07-29T01:20:03;20.80;;;9.13;;
57409;SDS011;46044;44.738;20.394;2022-07-29T01:25:30;19.05;;;9.27;;
57409;SDS011;46044;44.738;20.394;2022-07-29T01:30:32;18.98;;;9.00;;
57409;SDS011;46044;44.738;20.394;2022-07-29T01:33:03;20.05;;;8.98;;
57409;SDS011;46044;44.738;20.394;2022-07-29T01:35:36;16.58;;;8.88;;
57409;SDS011;46044;44.738;20.394;2022-07-29T01:40:46;19.15;;;9.43;;
57409;SDS011;46044;44.738;20.394;2022-07-29T01:43:27;16.00;;;9.93;;
57409;SDS011;46044;44.738;20.394;2022-07-29T01:46:21;13.73;;;9.80;;
57409;SDS011;46044;44.738;20.394;2022-07-29T01:48:56;15.88;;;9.05;;
57409;SDS011;46044;44.738;20.394;2022-07-29T01:51:34;17.17;;;8.98;;
57409;SDS011;46044;44.738;20.394;2022-07-29T01:56:47;15.77;;;9.18;;
57409;SDS011;46044;44.738;20.394;2022-07-29T01:59:16;12.75;;;8.98;;
57409;SDS011;46044;44.738;20.394;2022-07-29T02:01:43;10.88;;;8.63;;
57409;SDS011;46044;44.738;20.394;2022-07-29T02:04:11;14.68;;;8.82;;
57409;SDS011;46044;44.738;20.394;2022-07-29T02:06:40;18.20;;;9.45;;
57409;SDS011;46044;44.738;20.394;2022-07-29T02:09:09;13.00;;;8.40;;
57409;SDS011;46044;44.738;20.394;2022-07-29T02:11:36;12.02;;;7.78;;
57409;SDS011;46044;44.738;20.394;2022-07-29T02:14:04;16.02;;;8.05;;
57409;SDS011;46044;44.738;20.394;2022-07-29T02:16:32;13.32;;;8.18;;
57409;SDS011;46044;44.738;20.394;2022-07-29T02:19:01;13.57;;;8.00;;
57409;SDS011;46044;44.738;20.394;2022-07-29T02:21:29;18.98;;;7.60;;
57409;SDS011;46044;44.738;20.394;2022-07-29T02:23:57;14.40;;;8.68;;
57409;SDS011;46044;44.738;20.394;2022-07-29T02:26:25;15.75;;;8.50;;
57409;SDS011;46044;44.738;20.394;2022-07-29T02:28:54;11.52;;;8.50;;
57409;SDS011;46044;44.738;20.394;2022-07-29T02:31:23;14.95;;;8.75;;
57409;SDS011;46044;44.738;20.394;2022-07-29T02:33:51;12.23;;;8.07;;
57409;SDS011;46044;44.738;20.394;2022-07-29T02:36:18;16.13;;;8.50;;
57409;SDS011;46044;44.738;20.394;2022-07-29T02:38:47;13.85;;;8.75;;
57409;SDS011;46044;44.738;20.394;2022-07-29T02:41:40;12.32;;;8.50;;
57409;SDS011;46044;44.738;20.394;2022-07-29T02:44:11;11.55;;;8.38;;
57409;SDS011;46044;44.738;20.394;2022-07-29T02:47:07;13.98;;;8.10;;
57409;SDS011;46044;44.738;20.394;2022-07-29T02:49:37;18.75;;;9.63;;
57409;SDS011;46044;44.738;20.394;2022-07-29T02:55:15;13.00;;;8.27;;
57409;SDS011;46044;44.738;20.394;2022-07-29T02:57:57;14.30;;;8.35;;
57409;SDS011;46044;44.738;20.394;2022-07-29T03:00:58;13.55;;;8.93;;
57409;SDS011;46044;44.738;20.394;2022-07-29T03:03:28;16.75;;;8.60;;
57409;SDS011;46044;44.738;20.394;2022-07-29T03:05:57;15.20;;;8.40;;
57409;SDS011;46044;44.738;20.394;2022-07-29T03:08:24;12.57;;;8.73;;
57409;SDS011;46044;44.738;20.394;2022-07-29T03:10:52;12.63;;;8.38;;
57409;SDS011;46044;44.738;20.394;2022-07-29T03:13:19;12.07;;;8.07;;
57409;SDS011;46044;44.738;20.394;2022-07-29T03:15:47;16.33;;;8.50;;
57409;SDS011;46044;44.738;20.394;2022-07-29T03:18:14;12.80;;;9.20;;
57409;SDS011;46044;44.738;20.394;2022-07-29T03:20:40;14.82;;;8.98;;
57409;SDS011;46044;44.738;20.394;2022-07-29T03:23:07;12.75;;;8.68;;
57409;SDS011;46044;44.738;20.394;2022-07-29T03:25:33;11.90;;;9.35;;
57409;SDS011;46044;44.738;20.394;2022-07-29T03:27:59;11.98;;;8.23;;
57409;SDS011;46044;44.738;20.394;2022-07-29T03:30:25;12.70;;;8.45;;
57409;SDS011;46044;44.738;20.394;2022-07-29T03:32:51;17.30;;;8.75;;
57409;SDS011;46044;44.738;20.394;2022-07-29T03:35:18;12.93;;;8.30;;
57409;SDS011;46044;44.738;20.394;2022-07-29T03:37:44;12.50;;;8.02;;
57409;SDS011;46044;44.738;20.394;2022-07-29T03:40:11;15.68;;;8.13;;
57409;SDS011;46044;44.738;20.394;2022-07-29T03:42:50;14.27;;;8.75;;
57409;SDS011;46044;44.738;20.394;2022-07-29T03:45:19;9.55;;;7.38;;
57409;SDS011;46044;44.738;20.394;2022-07-29T03:47:47;11.77;;;7.72;;
57409;SDS011;46044;44.738;20.394;2022-07-29T03:50:16;20.10;;;8.32;;
57409;SDS011;46044;44.738;20.394;2022-07-29T03:52:44;13.60;;;7.88;;
57409;SDS011;46044;44.738;20.394;2022-07-29T03:55:11;16.27;;;8.60;;
57409;SDS011;46044;44.738;20.394;2022-07-29T03:57:37;10.63;;;8.13;;
57409;SDS011;46044;44.738;20.394;2022-07-29T04:00:04;11.43;;;7.32;;
57409;SDS011;46044;44.738;20.394;2022-07-29T04:02:31;10.30;;;7.63;;
57409;SDS011;46044;44.738;20.394;2022-07-29T04:04:57;11.45;;;7.55;;
57409;SDS011;46044;44.738;20.394;2022-07-29T04:07:23;11.15;;;7.88;;
57409;SDS011;46044;44.738;20.394;2022-07-29T04:09:50;12.95;;;7.60;;
57409;SDS011;46044;44.738;20.394;2022-07-29T04:12:16;10.68;;;7.88;;
57409;SDS011;46044;44.738;20.394;2022-07-29T04:14:42;11.00;;;7.13;;
57409;SDS011;46044;44.738;20.394;2022-07-29T04:17:07;10.65;;;7.03;;
57409;SDS011;46044;44.738;20.394;2022-07-29T04:19:33;11.07;;;7.18;;
57409;SDS011;46044;44.738;20.394;2022-07-29T04:21:59;10.85;;;7.18;;
57409;SDS011;46044;44.738;20.394;2022-07-29T04:24:25;12.95;;;7.72;;
57409;SDS011;46044;44.738;20.394;2022-07-29T04:26:51;10.20;;;7.28;;
57409;SDS011;46044;44.738;20.394;2022-07-29T04:29:17;10.30;;;7.53;;
57409;SDS011;46044;44.738;20.394;2022-07-29T04:31:43;12.27;;;8.00;;
57409;SDS011;46044;44.738;20.394;2022-07-29T04:34:09;14.85;;;7.28;;
57409;SDS011;46044;44.738;20.394;2022-07-29T04:36:35;11.77;;;7.03;;
57409;SDS011;46044;44.738;20.394;2022-07-29T04:39:01;11.98;;;6.80;;
57409;SDS011;46044;44.738;20.394;2022-07-29T04:41:27;12.38;;;6.65;;
57409;SDS011;46044;44.738;20.394;2022-07-29T04:43:53;12.57;;;7.22;;
57409;SDS011;46044;44.738;20.394;2022-07-29T04:46:19;13.88;;;9.63;;
57409;SDS011;46044;44.738;20.394;2022-07-29T04:48:45;10.10;;;6.88;;
57409;SDS011;46044;44.738;20.394;2022-07-29T04:51:12;10.30;;;6.40;;
57409;SDS011;46044;44.738;20.394;2022-07-29T04:53:38;13.15;;;6.35;;
57409;SDS011;46044;44.738;20.394;2022-07-29T04:56:04;10.82;;;6.80;;
57409;SDS011;46044;44.738;20.394;2022-07-29T04:58:30;13.23;;;7.47;;
57409;SDS011;46044;44.738;20.394;2022-07-29T05:00:56;9.52;;;6.45;;
57409;SDS011;46044;44.738;20.394;2022-07-29T05:03:22;16.42;;;7.13;;
57409;SDS011;46044;44.738;20.394;2022-07-29T05:05:47;9.52;;;6.80;;
57409;SDS011;46044;44.738;20.394;2022-07-29T05:08:13;10.88;;;7.72;;
57409;SDS011;46044;44.738;20.394;2022-07-29T05:10:39;12.63;;;7.63;;
57409;SDS011;46044;44.738;20.394;2022-07-29T05:13:05;10.57;;;6.80;;
57409;SDS011;46044;44.738;20.394;2022-07-29T05:15:32;9.98;;;6.25;;
57409;SDS011;46044;44.738;20.394;2022-07-29T05:17:58;17.13;;;6.65;;
57409;SDS011;46044;44.738;20.394;2022-07-29T05:20:24;12.63;;;6.38;;
57409;SDS011;46044;44.738;20.394;2022-07-29T05:22:53;8.48;;;6.30;;
57409;SDS011;46044;44.738;20.394;2022-07-29T05:25:23;9.95;;;6.28;;
57409;SDS011;46044;44.738;20.394;2022-07-29T05:27:49;8.48;;;5.40;;
57409;SDS011;46044;44.738;20.394;2022-07-29T05:30:15;7.20;;;5.18;;
57409;SDS011;46044;44.738;20.394;2022-07-29T05:32:41;9.25;;;5.85;;
57409;SDS011;46044;44.738;20.394;2022-07-29T05:35:07;7.30;;;5.45;;
57409;SDS011;46044;44.738;20.394;2022-07-29T05:37:33;13.75;;;5.07;;
57409;SDS011;46044;44.738;20.394;2022-07-29T05:39:59;7.60;;;5.20;;
57409;SDS011;46044;44.738;20.394;2022-07-29T05:42:25;6.13;;;4.60;;
57409;SDS011;46044;44.738;20.394;2022-07-29T05:44:51;8.60;;;4.90;;
57409;SDS011;46044;44.738;20.394;2022-07-29T05:47:18;8.73;;;4.78;;
57409;SDS011;46044;44.738;20.394;2022-07-29T05:49:43;9.38;;;4.57;;
57409;SDS011;46044;44.738;20.394;2022-07-29T05:52:09;6.88;;;5.13;;
57409;SDS011;46044;44.738;20.394;2022-07-29T05:54:35;9.88;;;5.07;;
57409;SDS011;46044;44.738;20.394;2022-07-29T05:57:01;6.05;;;4.78;;
57409;SDS011;46044;44.738;20.394;2022-07-29T05:59:27;6.93;;;4.40;;
57409;SDS011;46044;44.738;20.394;2022-07-29T06:01:53;6.50;;;4.60;;
57409;SDS011;46044;44.738;20.394;2022-07-29T06:04:19;8.57;;;4.32;;
57409;SDS011;46044;44.738;20.394;2022-07-29T06:06:45;5.88;;;4.40;;
57409;SDS011;46044;44.738;20.394;2022-07-29T06:09:10;6.63;;;4.45;;
57409;SDS011;46044;44.738;20.394;2022-07-29T06:11:36;10.35;;;5.03;;
57409;SDS011;46044;44.738;20.394;2022-07-29T06:14:02;5.47;;;4.15;;
57409;SDS011;46044;44.738;20.394;2022-07-29T06:16:28;6.63;;;4.45;;
57409;SDS011;46044;44.738;20.394;2022-07-29T06:18:54;6.28;;;4.32;;
57409;SDS011;46044;44.738;20.394;2022-07-29T06:21:20;7.50;;;4.43;;
57409;SDS011;46044;44.738;20.394;2022-07-29T06:23:45;6.10;;;4.50;;
57409;SDS011;46044;44.738;20.394;2022-07-29T06:26:11;5.40;;;4.07;;
57409;SDS011;46044;44.738;20.394;2022-07-29T06:28:37;7.32;;;4.38;;
57409;SDS011;46044;44.738;20.394;2022-07-29T06:31:02;5.45;;;3.90;;
57409;SDS011;46044;44.738;20.394;2022-07-29T06:33:29;5.20;;;4.35;;
57409;SDS011;46044;44.738;20.394;2022-07-29T06:35:55;7.70;;;4.25;;
57409;SDS011;46044;44.738;20.394;2022-07-29T06:38:21;8.55;;;4.22;;
57409;SDS011;46044;44.738;20.394;2022-07-29T06:40:47;7.47;;;4.57;;
57409;SDS011;46044;44.738;20.394;2022-07-29T06:43:24;8.20;;;4.45;;
57409;SDS011;46044;44.738;20.394;2022-07-29T06:45:57;9.40;;;4.20;;
57409;SDS011;46044;44.738;20.394;2022-07-29T06:48:24;6.38;;;5.05;;
57409;SDS011;46044;44.738;20.394;2022-07-29T06:50:50;5.18;;;4.60;;
57409;SDS011;46044;44.738;20.394;2022-07-29T06:53:16;9.98;;;4.30;;
57409;SDS011;46044;44.738;20.394;2022-07-29T06:55:41;8.27;;;4.32;;
57409;SDS011;46044;44.738;20.394;2022-07-29T06:58:07;6.38;;;4.03;;
57409;SDS011;46044;44.738;20.394;2022-07-29T07:00:34;5.88;;;4.13;;
57409;SDS011;46044;44.738;20.394;2022-07-29T07:03:00;6.35;;;4.32;;
57409;SDS011;46044;44.738;20.394;2022-07-29T07:05:26;6.82;;;4.40;;
57409;SDS011;46044;44.738;20.394;2022-07-29T07:07:51;4.10;;;3.67;;
57409;SDS011;46044;44.738;20.394;2022-07-29T07:10:17;5.32;;;4.43;;
57409;SDS011;46044;44.738;20.394;2022-07-29T07:12:43;6.10;;;4.47;;
57409;SDS011;46044;44.738;20.394;2022-07-29T07:15:09;5.07;;;4.43;;
57409;SDS011;46044;44.738;20.394;2022-07-29T07:17:34;11.18;;;4.63;;
57409;SDS011;46044;44.738;20.394;2022-07-29T07:20:00;6.68;;;4.60;;
57409;SDS011;46044;44.738;20.394;2022-07-29T07:22:26;6.95;;;4.72;;
57409;SDS011;46044;44.738;20.394;2022-07-29T07:24:52;8.35;;;4.80;;
57409;SDS011;46044;44.738;20.394;2022-07-29T07:27:17;6.35;;;4.60;;
57409;SDS011;46044;44.738;20.394;2022-07-29T07:29:43;9.90;;;4.70;;
57409;SDS011;46044;44.738;20.394;2022-07-29T07:32:09;8.70;;;4.72;;
57409;SDS011;46044;44.738;20.394;2022-07-29T07:34:34;4.93;;;4.43;;
57409;SDS011;46044;44.738;20.394;2022-07-29T07:37:00;6.25;;;5.40;;
57409;SDS011;46044;44.738;20.394;2022-07-29T07:39:26;5.45;;;4.60;;
57409;SDS011;46044;44.738;20.394;2022-07-29T07:41:52;7.75;;;4.63;;
57409;SDS011;46044;44.738;20.394;2022-07-29T07:44:17;5.90;;;4.10;;
57409;SDS011;46044;44.738;20.394;2022-07-29T07:46:43;8.43;;;4.95;;
57409;SDS011;46044;44.738;20.394;2022-07-29T07:49:10;7.38;;;5.18;;
57409;SDS011;46044;44.738;20.394;2022-07-29T07:51:36;6.65;;;5.18;;
57409;SDS011;46044;44.738;20.394;2022-07-29T07:54:01;6.38;;;4.55;;
57409;SDS011;46044;44.738;20.394;2022-07-29T07:56:27;8.65;;;4.82;;
57409;SDS011;46044;44.738;20.394;2022-07-29T07:58:53;11.60;;;5.07;;
57409;SDS011;46044;44.738;20.394;2022-07-29T08:01:20;9.48;;;5.10;;
57409;SDS011;46044;44.738;20.394;2022-07-29T08:03:47;11.68;;;4.75;;
57409;SDS011;46044;44.738;20.394;2022-07-29T08:06:14;7.05;;;5.03;;
57409;SDS011;46044;44.738;20.394;2022-07-29T08:08:40;9.25;;;4.07;;
57409;SDS011;46044;44.738;20.394;2022-07-29T08:11:06;11.63;;;6.13;;
57409;SDS011;46044;44.738;20.394;2022-07-29T08:13:31;8.13;;;5.25;;
57409;SDS011;46044;44.738;20.394;2022-07-29T08:15:58;6.03;;;4.82;;
57409;SDS011;46044;44.738;20.394;2022-07-29T08:18:35;5.22;;;4.63;;
57409;SDS011;46044;44.738;20.394;2022-07-29T08:21:01;5.00;;;4.50;;
57409;SDS011;46044;44.738;20.394;2022-07-29T08:23:27;8.57;;;4.93;;
57409;SDS011;46044;44.738;20.394;2022-07-29T08:26:00;6.20;;;4.60;;
57409;SDS011;46044;44.738;20.394;2022-07-29T08:28:26;12.50;;;6.30;;
57409;SDS011;46044;44.738;20.394;2022-07-29T08:30:51;6.88;;;4.97;;
57409;SDS011;46044;44.738;20.394;2022-07-29T08:33:17;6.45;;;4.70;;
57409;SDS011;46044;44.738;20.394;2022-07-29T08:35:43;6.45;;;4.80;;
57409;SDS011;46044;44.738;20.394;2022-07-29T08:38:08;5.57;;;4.30;;
57409;SDS011;46044;44.738;20.394;2022-07-29T08:40:35;5.78;;;4.90;;
57409;SDS011;46044;44.738;20.394;2022-07-29T08:43:04;7.85;;;4.97;;
57409;SDS011;46044;44.738;20.394;2022-07-29T08:45:35;7.18;;;5.45;;
57409;SDS011;46044;44.738;20.394;2022-07-29T08:48:13;9.85;;;5.20;;
57409;SDS011;46044;44.738;20.394;2022-07-29T08:50:41;10.15;;;4.78;;
57409;SDS011;46044;44.738;20.394;2022-07-29T08:53:10;6.22;;;5.20;;
57409;SDS011;46044;44.738;20.394;2022-07-29T08:55:44;6.47;;;5.40;;
57409;SDS011;46044;44.738;20.394;2022-07-29T08:58:12;8.52;;;4.90;;
57409;SDS011;46044;44.738;20.394;2022-07-29T09:00:41;8.50;;;5.28;;
57409;SDS011;46044;44.738;20.394;2022-07-29T09:03:09;8.23;;;5.50;;
57409;SDS011;46044;44.738;20.394;2022-07-29T09:05:43;6.53;;;5.05;;
57409;SDS011;46044;44.738;20.394;2022-07-29T09:08:11;7.53;;;4.93;;
57409;SDS011;46044;44.738;20.394;2022-07-29T09:10:38;7.70;;;5.13;;
57409;SDS011;46044;44.738;20.394;2022-07-29T09:13:04;6.95;;;5.50;;
57409;SDS011;46044;44.738;20.394;2022-07-29T09:15:30;7.93;;;5.30;;
57409;SDS011;46044;44.738;20.394;2022-07-29T09:17:56;9.43;;;4.93;;
57409;SDS011;46044;44.738;20.394;2022-07-29T09:20:24;6.18;;;4.93;;
57409;SDS011;46044;44.738;20.394;2022-07-29T09:22:51;7.10;;;5.45;;
57409;SDS011;46044;44.738;20.394;2022-07-29T09:28:08;7.03;;;5.57;;
57409;SDS011;46044;44.738;20.394;2022-07-29T09:30:35;6.63;;;5.55;;
57409;SDS011;46044;44.738;20.394;2022-07-29T09:33:01;6.10;;;5.28;;
57409;SDS011;46044;44.738;20.394;2022-07-29T09:35:29;10.18;;;5.63;;
57409;SDS011;46044;44.738;20.394;2022-07-29T09:37:55;8.75;;;5.30;;
57409;SDS011;46044;44.738;20.394;2022-07-29T09:40:22;7.25;;;5.30;;
57409;SDS011;46044;44.738;20.394;2022-07-29T09:42:50;6.43;;;5.43;;
57409;SDS011;46044;44.738;20.394;2022-07-29T09:48:17;7.68;;;5.40;;
57409;SDS011;46044;44.738;20.394;2022-07-29T09:50:48;8.43;;;5.80;;
57409;SDS011;46044;44.738;20.394;2022-07-29T09:56:00;7.13;;;5.68;;
57409;SDS011;46044;44.738;20.394;2022-07-29T09:58:26;6.63;;;5.60;;
57409;SDS011;46044;44.738;20.394;2022-07-29T10:00:53;8.88;;;5.45;;
57409;SDS011;46044;44.738;20.394;2022-07-29T10:03:20;7.93;;;5.60;;
57409;SDS011;46044;44.738;20.394;2022-07-29T10:06:03;10.05;;;5.45;;
57409;SDS011;46044;44.738;20.394;2022-07-29T10:08:30;6.75;;;5.03;;
57409;SDS011;46044;44.738;20.394;2022-07-29T10:11:08;14.75;;;5.80;;
57409;SDS011;46044;44.738;20.394;2022-07-29T10:13:38;10.93;;;5.95;;
57409;SDS011;46044;44.738;20.394;2022-07-29T10:16:04;15.02;;;6.07;;
57409;SDS011;46044;44.738;20.394;2022-07-29T10:18:31;14.68;;;5.55;;
57409;SDS011;46044;44.738;20.394;2022-07-29T10:20:58;11.27;;;5.53;;
57409;SDS011;46044;44.738;20.394;2022-07-29T10:23:26;23.85;;;6.25;;
57409;SDS011;46044;44.738;20.394;2022-07-29T10:25:52;8.27;;;5.50;;
57409;SDS011;46044;44.738;20.394;2022-07-29T10:28:18;7.70;;;5.72;;
57409;SDS011;46044;44.738;20.394;2022-07-29T10:30:44;11.95;;;5.68;;
57409;SDS011;46044;44.738;20.394;2022-07-29T10:36:15;14.80;;;6.43;;
57409;SDS011;46044;44.738;20.394;2022-07-29T10:41:57;7.30;;;5.93;;
57409;SDS011;46044;44.738;20.394;2022-07-29T10:44:35;9.95;;;6.18;;
57409;SDS011;46044;44.738;20.394;2022-07-29T10:47:08;10.00;;;6.13;;
57409;SDS011;46044;44.738;20.394;2022-07-29T10:49:54;8.95;;;6.05;;
57409;SDS011;46044;44.738;20.394;2022-07-29T10:52:24;9.73;;;5.80;;
57409;SDS011;46044;44.738;20.394;2022-07-29T10:55:11;8.82;;;6.65;;
57409;SDS011;46044;44.738;20.394;2022-07-29T11:00:50;9.60;;;6.13;;
57409;SDS011;46044;44.738;20.394;2022-07-29T11:06:18;12.73;;;6.20;;
57409;SDS011;46044;44.738;20.394;2022-07-29T11:08:43;8.02;;;5.40;;
57409;SDS011;46044;44.738;20.394;2022-07-29T11:16:15;9.88;;;6.30;;
57409;SDS011;46044;44.738;20.394;2022-07-29T11:24:11;10.18;;;6.78;;
57409;SDS011;46044;44.738;20.394;2022-07-29T11:26:41;9.57;;;6.22;;
57409;SDS011;46044;44.738;20.394;2022-07-29T11:29:18;7.93;;;6.25;;
57409;SDS011;46044;44.738;20.394;2022-07-29T11:31:48;7.90;;;6.38;;
57409;SDS011;46044;44.738;20.394;2022-07-29T11:34:36;9.68;;;6.50;;
57409;SDS011;46044;44.738;20.394;2022-07-29T11:40:16;9.07;;;7.15;;
57409;SDS011;46044;44.738;20.394;2022-07-29T11:47:25;9.98;;;6.60;;
57409;SDS011;46044;44.738;20.394;2022-07-29T11:49:53;11.05;;;6.32;;
57409;SDS011;46044;44.738;20.394;2022-07-29T11:52:22;9.68;;;6.72;;
57409;SDS011;46044;44.738;20.394;2022-07-29T11:54:49;10.40;;;7.30;;
57409;SDS011;46044;44.738;20.394;2022-07-29T11:57:19;8.05;;;6.68;;
57409;SDS011;46044;44.738;20.394;2022-07-29T11:59:45;10.75;;;7.13;;
57409;SDS011;46044;44.738;20.394;2022-07-29T12:02:13;10.73;;;6.85;;
57409;SDS011;46044;44.738;20.394;2022-07-29T12:07:18;10.13;;;6.68;;
57409;SDS011;46044;44.738;20.394;2022-07-29T12:09:51;8.40;;;6.53;;
57409;SDS011;46044;44.738;20.394;2022-07-29T12:12:18;9.50;;;7.13;;
57409;SDS011;46044;44.738;20.394;2022-07-29T12:14:44;13.68;;;7.38;;
57409;SDS011;46044;44.738;20.394;2022-07-29T12:17:29;9.45;;;7.47;;
57409;SDS011;46044;44.738;20.394;2022-07-29T12:20:01;11.05;;;7.15;;
57409;SDS011;46044;44.738;20.394;2022-07-29T12:22:36;11.25;;;7.47;;
57409;SDS011;46044;44.738;20.394;2022-07-29T12:25:11;9.52;;;6.68;;
57409;SDS011;46044;44.738;20.394;2022-07-29T12:27:40;7.68;;;6.53;;
57409;SDS011;46044;44.738;20.394;2022-07-29T12:30:09;11.43;;;7.38;;
57409;SDS011;46044;44.738;20.394;2022-07-29T12:32:38;10.68;;;6.88;;
57409;SDS011;46044;44.738;20.394;2022-07-29T12:37:34;10.00;;;7.85;;
57409;SDS011;46044;44.738;20.394;2022-07-29T12:40:02;8.07;;;6.80;;
57409;SDS011;46044;44.738;20.394;2022-07-29T12:42:29;10.20;;;6.90;;
57409;SDS011;46044;44.738;20.394;2022-07-29T12:44:55;7.18;;;6.45;;
57409;SDS011;46044;44.738;20.394;2022-07-29T12:47:20;10.38;;;6.65;;
57409;SDS011;46044;44.738;20.394;2022-07-29T12:49:46;7.80;;;6.90;;
57409;SDS011;46044;44.738;20.394;2022-07-29T12:55:09;8.00;;;6.93;;
57409;SDS011;46044;44.738;20.394;2022-07-29T12:57:48;10.88;;;6.65;;
57409;SDS011;46044;44.738;20.394;2022-07-29T13:00:22;8.93;;;6.67;;
57409;SDS011;46044;44.738;20.394;2022-07-29T13:02:58;9.38;;;6.85;;
57409;SDS011;46044;44.738;20.394;2022-07-29T13:05:38;9.82;;;7.25;;
57409;SDS011;46044;44.738;20.394;2022-07-29T13:08:12;10.70;;;7.60;;
57409;SDS011;46044;44.738;20.394;2022-07-29T13:10:39;12.02;;;7.22;;
57409;SDS011;46044;44.738;20.394;2022-07-29T13:13:06;8.98;;;6.88;;
57409;SDS011;46044;44.738;20.394;2022-07-29T13:15:35;8.60;;;7.03;;
57409;SDS011;46044;44.738;20.394;2022-07-29T13:18:05;9.57;;;6.85;;
57409;SDS011;46044;44.738;20.394;2022-07-29T13:20:52;12.82;;;6.82;;
57409;SDS011;46044;44.738;20.394;2022-07-29T13:23:17;7.90;;;7.10;;
57409;SDS011;46044;44.738;20.394;2022-07-29T13:25:43;8.65;;;6.82;;
57409;SDS011;46044;44.738;20.394;2022-07-29T13:28:09;7.97;;;6.88;;
57409;SDS011;46044;44.738;20.394;2022-07-29T13:30:36;12.85;;;7.43;;
57409;SDS011;46044;44.738;20.394;2022-07-29T13:33:02;10.68;;;6.85;;
57409;SDS011;46044;44.738;20.394;2022-07-29T13:35:28;11.52;;;7.22;;
57409;SDS011;46044;44.738;20.394;2022-07-29T13:37:54;9.48;;;7.43;;
57409;SDS011;46044;44.738;20.394;2022-07-29T13:40:20;7.88;;;7.18;;
57409;SDS011;46044;44.738;20.394;2022-07-29T13:42:46;9.65;;;7.20;;
57409;SDS011;46044;44.738;20.394;2022-07-29T13:45:12;8.93;;;7.75;;
57409;SDS011;46044;44.738;20.394;2022-07-29T13:47:37;13.15;;;7.50;;
57409;SDS011;46044;44.738;20.394;2022-07-29T13:50:04;11.65;;;8.30;;
57409;SDS011;46044;44.738;20.394;2022-07-29T13:52:31;11.88;;;7.82;;
57409;SDS011;46044;44.738;20.394;2022-07-29T13:54:58;10.00;;;7.95;;
57409;SDS011;46044;44.738;20.394;2022-07-29T13:57:24;7.88;;;7.10;;
57409;SDS011;46044;44.738;20.394;2022-07-29T13:59:50;10.13;;;7.63;;
57409;SDS011;46044;44.738;20.394;2022-07-29T14:02:16;9.23;;;7.28;;
57409;SDS011;46044;44.738;20.394;2022-07-29T14:04:42;11.68;;;8.63;;
57409;SDS011;46044;44.738;20.394;2022-07-29T14:07:08;12.07;;;7.28;;
57409;SDS011;46044;44.738;20.394;2022-07-29T14:09:35;15.25;;;7.90;;
57409;SDS011;46044;44.738;20.394;2022-07-29T14:12:01;11.25;;;7.70;;
57409;SDS011;46044;44.738;20.394;2022-07-29T14:14:27;11.60;;;7.70;;
57409;SDS011;46044;44.738;20.394;2022-07-29T14:16:54;13.20;;;6.93;;
57409;SDS011;46044;44.738;20.394;2022-07-29T14:19:20;8.00;;;6.88;;
57409;SDS011;46044;44.738;20.394;2022-07-29T14:21:45;8.50;;;7.68;;
57409;SDS011;46044;44.738;20.394;2022-07-29T14:24:11;8.25;;;6.90;;
57409;SDS011;46044;44.738;20.394;2022-07-29T14:26:37;12.82;;;7.07;;
57409;SDS011;46044;44.738;20.394;2022-07-29T14:29:02;13.60;;;6.93;;
57409;SDS011;46044;44.738;20.394;2022-07-29T14:31:28;12.45;;;6.75;;
57409;SDS011;46044;44.738;20.394;2022-07-29T14:33:54;13.13;;;7.20;;
57409;SDS011;46044;44.738;20.394;2022-07-29T14:36:20;12.70;;;7.07;;
57409;SDS011;46044;44.738;20.394;2022-07-29T14:38:45;7.70;;;6.50;;
57409;SDS011;46044;44.738;20.394;2022-07-29T14:41:11;9.20;;;6.93;;
57409;SDS011;46044;44.738;20.394;2022-07-29T14:43:37;8.63;;;6.70;;
57409;SDS011;46044;44.738;20.394;2022-07-29T14:46:02;14.93;;;7.60;;
57409;SDS011;46044;44.738;20.394;2022-07-29T14:48:28;10.90;;;7.57;;
57409;SDS011;46044;44.738;20.394;2022-07-29T14:50:54;13.13;;;6.85;;
57409;SDS011;46044;44.738;20.394;2022-07-29T14:53:21;8.52;;;6.40;;
57409;SDS011;46044;44.738;20.394;2022-07-29T14:55:47;15.30;;;6.80;;
57409;SDS011;46044;44.738;20.394;2022-07-29T14:58:13;19.25;;;6.53;;
57409;SDS011;46044;44.738;20.394;2022-07-29T15:00:39;26.02;;;7.65;;
57409;SDS011;46044;44.738;20.394;2022-07-29T15:03:04;9.90;;;7.88;;
57409;SDS011;46044;44.738;20.394;2022-07-29T15:05:30;9.35;;;7.28;;
57409;SDS011;46044;44.738;20.394;2022-07-29T15:07:57;9.07;;;7.47;;
57409;SDS011;46044;44.738;20.394;2022-07-29T15:10:23;9.35;;;7.60;;
57409;SDS011;46044;44.738;20.394;2022-07-29T15:12:51;9.77;;;6.82;;
57409;SDS011;46044;44.738;20.394;2022-07-29T15:15:16;11.10;;;7.72;;
57409;SDS011;46044;44.738;20.394;2022-07-29T15:17:42;10.65;;;7.15;;
57409;SDS011;46044;44.738;20.394;2022-07-29T15:20:08;10.18;;;7.30;;
57409;SDS011;46044;44.738;20.394;2022-07-29T15:22:34;13.70;;;7.60;;
57409;SDS011;46044;44.738;20.394;2022-07-29T15:27:30;16.80;;;7.65;;
57409;SDS011;46044;44.738;20.394;2022-07-29T15:29:55;10.05;;;6.88;;
57409;SDS011;46044;44.738;20.394;2022-07-29T15:32:21;10.68;;;7.20;;
57409;SDS011;46044;44.738;20.394;2022-07-29T15:34:47;11.55;;;7.25;;
57409;SDS011;46044;44.738;20.394;2022-07-29T15:37:13;7.57;;;6.60;;